NCAR-RAP Real-Time Weather Data

Output produced by METARs form (01 October 2022  04:08 UTC)
found at http://weather.rap.ucar.edu/surface/
 
KGPI 010355Z 00000KT 10SM BKN090 OVC110 11/09 A3015 RMK AO2 SLP213 T01110094
KGPI 010255Z 00000KT 10SM OVC080 12/10 A3014 RMK AO2 SLP210 T01220100 53004
KGPI 010155Z 00000KT 10SM BKN055 OVC075 15/10 A3013 RMK AO2 SLP208 T01500100